createdAt,value
2022-12-19T00:05:42.814Z,3.50
2022-12-19T00:12:30.763Z,3.57
2022-12-19T00:19:16.522Z,3.63
2022-12-19T00:26:14.782Z,3.61
2022-12-19T00:33:02.839Z,3.59
2022-12-19T00:39:48.267Z,3.66
2022-12-19T00:46:35.682Z,3.78
2022-12-19T00:53:23.623Z,3.69
2022-12-19T01:00:11.798Z,3.76
2022-12-19T01:07:01.602Z,3.70
2022-12-19T01:13:52.522Z,3.74
2022-12-19T01:20:37.886Z,3.82
2022-12-19T01:27:23.303Z,3.84
2022-12-19T01:34:11.310Z,3.80
2022-12-19T01:41:00.563Z,3.76
2022-12-19T01:47:53.474Z,3.75
2022-12-19T01:54:44.856Z,3.76
2022-12-19T02:01:30.673Z,3.69
2022-12-19T02:08:17.501Z,3.79
2022-12-19T02:15:07.225Z,3.81
2022-12-19T02:22:00.994Z,3.94
2022-12-19T02:29:16.701Z,3.92
2022-12-19T02:36:13.180Z,4.05
2022-12-19T02:43:03.493Z,4.06
2022-12-19T02:49:49.038Z,4.08
2022-12-19T02:56:50.825Z,4.21
2022-12-19T03:03:50.541Z,4.15
2022-12-19T03:10:44.420Z,4.28
2022-12-19T03:17:32.910Z,4.26
2022-12-19T03:24:20.256Z,4.37
2022-12-19T03:31:08.066Z,4.14
2022-12-19T03:37:59.816Z,4.36
2022-12-19T03:44:46.766Z,4.44
2022-12-19T04:05:05.924Z,4.26
2022-12-19T04:11:57.239Z,4.55
2022-12-19T04:18:46.459Z,4.62
2022-12-19T04:25:40.606Z,4.43
2022-12-19T04:32:28.093Z,4.78
2022-12-19T04:39:13.512Z,4.84
2022-12-19T04:46:02.231Z,4.85
2022-12-19T04:52:47.630Z,4.76
2022-12-19T04:59:33.515Z,4.80
2022-12-19T05:06:23.031Z,4.94
2022-12-19T05:13:09.255Z,4.96
2022-12-19T05:19:54.696Z,4.90
2022-12-19T05:26:42.684Z,4.92
2022-12-19T05:33:28.124Z,5.02
2022-12-19T05:40:15.073Z,5.05
2022-12-19T05:47:02.943Z,5.41
2022-12-19T05:53:48.448Z,5.12
2022-12-19T06:00:33.889Z,5.04
2022-12-19T06:07:22.226Z,4.97
2022-12-19T06:14:07.644Z,5.17
2022-12-19T06:21:00.643Z,5.05
2022-12-19T06:27:49.426Z,5.20
2022-12-19T06:35:02.745Z,5.32
2022-12-19T06:41:52.635Z,5.38
2022-12-19T06:48:41.700Z,5.21
2022-12-19T06:55:27.099Z,5.29
2022-12-19T07:02:27.291Z,5.47
2022-12-19T07:09:15.381Z,5.54
2022-12-19T07:16:05.317Z,5.67
2022-12-19T07:22:51.749Z,5.78
2022-12-19T07:29:40.139Z,5.81
2022-12-19T07:36:25.547Z,5.82
2022-12-19T07:43:11.014Z,5.84
2022-12-19T07:49:59.034Z,5.65
2022-12-19T07:56:44.346Z,5.84
2022-12-19T08:03:31.042Z,5.92
2022-12-19T08:10:20.152Z,5.87
2022-12-19T08:17:21.636Z,5.95
2022-12-19T08:24:08.487Z,5.94
2022-12-19T08:30:56.503Z,6.07
2022-12-19T08:37:42.082Z,6.09
2022-12-19T08:44:27.970Z,6.23
2022-12-19T08:51:18.239Z,6.27
2022-12-19T08:58:03.627Z,6.33
2022-12-19T09:06:00.193Z,6.41
2022-12-19T09:11:57.165Z,6.40
2022-12-19T09:18:48.177Z,6.48
2022-12-19T09:25:34.234Z,6.60
2022-12-19T09:32:22.526Z,6.45
2022-12-19T09:39:08.188Z,6.53
2022-12-19T09:46:05.896Z,6.44
2022-12-19T09:53:03.561Z,6.35
2022-12-19T09:59:54.348Z,6.32
2022-12-19T10:07:14.036Z,6.46
2022-12-19T10:14:15.600Z,6.32
2022-12-19T10:21:10.322Z,6.38
2022-12-19T10:28:04.013Z,6.36
2022-12-19T10:34:55.028Z,6.37
2022-12-19T10:41:45.832Z,6.48
2022-12-19T10:48:31.907Z,6.62
2022-12-19T10:55:38.725Z,6.67
2022-12-19T11:02:38.410Z,6.65
2022-12-19T11:09:31.608Z,6.62
2022-12-19T11:24:57.939Z,6.78
2022-12-19T11:29:42.534Z,6.78
2022-12-19T11:37:55.859Z,6.84
2022-12-19T11:44:49.644Z,6.85
2022-12-19T11:51:42.722Z,7.01
2022-12-19T11:58:32.890Z,7.06
2022-12-19T12:05:45.665Z,7.19
2022-12-19T12:21:24.998Z,7.33
2022-12-19T12:31:13.159Z,7.30
2022-12-19T12:31:49.212Z,7.41
2022-12-19T12:35:32.770Z,7.44
2022-12-19T12:42:14.117Z,7.42
2022-12-19T12:49:05.691Z,7.53
2022-12-19T12:55:57.754Z,7.54
2022-12-19T13:02:43.813Z,7.62
2022-12-19T13:09:32.468Z,7.80
2022-12-19T13:16:53.984Z,7.83
2022-12-19T13:24:16.594Z,7.94
2022-12-19T13:31:24.880Z,8.04
2022-12-19T13:39:54.032Z,8.01
2022-12-19T13:45:34.708Z,8.06
2022-12-19T13:52:23.257Z,8.06
2022-12-19T13:59:12.163Z,8.11
2022-12-19T14:06:16.783Z,8.00
2022-12-19T14:13:46.812Z,8.00
2022-12-19T14:22:03.625Z,7.87
2022-12-19T14:28:26.550Z,7.91
2022-12-19T14:36:08.613Z,7.96
2022-12-19T14:42:20.626Z,7.86
2022-12-19T14:54:10.247Z,7.92
2022-12-19T14:56:59.212Z,7.85
2022-12-19T15:04:49.513Z,7.83
2022-12-19T15:11:44.484Z,7.92
2022-12-19T15:18:40.555Z,7.95
2022-12-19T15:26:02.302Z,7.96
2022-12-19T15:32:34.285Z,7.86
2022-12-19T15:39:20.851Z,7.90
2022-12-19T15:46:09.195Z,7.86
2022-12-19T15:52:56.693Z,7.89
2022-12-19T15:59:47.744Z,7.77
2022-12-19T16:06:35.693Z,7.80
2022-12-19T16:13:26.687Z,7.67
2022-12-19T16:20:21.197Z,7.79
2022-12-19T16:27:09.229Z,7.77
2022-12-19T16:33:54.729Z,7.66
2022-12-19T16:40:40.359Z,7.70
2022-12-19T16:47:28.382Z,7.61
2022-12-19T16:54:15.971Z,7.55
2022-12-19T17:01:02.113Z,7.48
2022-12-19T17:07:50.626Z,7.63
2022-12-19T17:14:36.316Z,7.68
2022-12-19T17:21:25.447Z,7.63
2022-12-19T17:28:14.290Z,7.58
2022-12-19T17:34:59.731Z,7.65
2022-12-19T17:41:45.453Z,7.67
2022-12-19T17:48:35.866Z,7.61
2022-12-19T17:55:24.903Z,7.63
2022-12-19T18:02:23.389Z,7.48
2022-12-19T18:09:22.154Z,7.46
2022-12-19T18:16:09.399Z,7.46
2022-12-19T18:22:55.268Z,7.62
2022-12-19T18:29:43.278Z,7.74
2022-12-19T18:36:31.642Z,7.78
2022-12-19T18:43:18.211Z,7.79
2022-12-19T18:50:09.079Z,7.61
2022-12-19T18:56:54.672Z,7.59
2022-12-19T19:03:43.188Z,7.57
2022-12-19T19:10:34.566Z,7.47
2022-12-19T19:17:32.740Z,7.44
2022-12-19T19:24:21.945Z,7.35
2022-12-19T19:31:13.461Z,7.28
2022-12-19T19:38:06.682Z,7.00
2022-12-19T19:44:52.060Z,7.33
2022-12-19T19:51:40.446Z,7.28
2022-12-19T19:58:25.953Z,7.38
2022-12-19T20:05:12.768Z,7.33
2022-12-19T20:12:01.190Z,7.33
2022-12-19T20:18:51.559Z,7.30
2022-12-19T20:25:40.154Z,7.44
2022-12-19T20:32:28.166Z,7.29
2022-12-19T20:39:13.557Z,7.36
2022-12-19T20:46:05.645Z,7.38
2022-12-19T20:52:53.735Z,7.41
2022-12-19T20:59:39.121Z,7.51
2022-12-19T21:06:27.152Z,7.52
2022-12-19T21:13:15.134Z,7.48
2022-12-19T21:20:00.537Z,7.50
2022-12-19T21:26:57.509Z,7.46
2022-12-19T21:33:47.277Z,7.49
2022-12-19T21:40:32.710Z,7.47
2022-12-19T21:47:18.361Z,7.39
2022-12-19T21:54:07.904Z,7.43
2022-12-19T22:00:53.415Z,7.44
2022-12-19T22:07:38.844Z,7.52
2022-12-19T22:14:27.168Z,7.53
2022-12-19T22:21:15.638Z,6.89
2022-12-19T22:28:01.033Z,7.57
2022-12-19T22:34:51.788Z,7.59
2022-12-19T22:41:38.457Z,7.67
2022-12-19T22:48:23.858Z,7.60
2022-12-19T22:55:12.807Z,7.61
2022-12-19T23:01:58.327Z,7.71
2022-12-19T23:08:44.185Z,7.66
2022-12-19T23:15:32.169Z,7.68
2022-12-19T23:22:17.572Z,7.72
2022-12-19T23:29:07.094Z,7.71
2022-12-19T23:35:55.250Z,7.68
2022-12-19T23:42:40.928Z,7.75
2022-12-19T23:49:26.531Z,7.73
2022-12-19T23:56:17.179Z,7.55
